<?xml version="1.0" encoding="UTF-8" standalone="no" ?>
<gpx xmlns="http://www.topografix.com/GPX/1/1" xmlns:xsi="http://www.w3.org/2001/XMLSchema-instance" xsi:schemaLocation="http://www.topografix.com/GPX/1/1 http://www.topografix.com/GPX/1/1/gpx.xsd" version="1.1" creator="VisuGPX - https://www.visugpx.com">
  <metadata>
    <name>Course nature flize 2016</name>
    <desc><![CDATA[Course nature Flize 2016]]></desc>
  </metadata>
  <trk>
    <name><![CDATA[Course nature flize 2016_1]]></name>
    <trkseg>
      <trkpt lat="49.69828" lon="4.77514">
        <ele>149.9</ele>
        <time>2016-08-09T16:39:16Z</time>
      </trkpt>
      <trkpt lat="49.69816" lon="4.77514">
        <ele>195</ele>
        <time>2016-08-09T16:39:16Z</time>
      </trkpt>
      <trkpt lat="49.69795" lon="4.77516">
        <ele>192</ele>
        <time>2016-08-09T16:39:27Z</time>
      </trkpt>
      <trkpt lat="49.69779" lon="4.77534">
        <ele>194</ele>
        <time>2016-08-09T16:39:37Z</time>
      </trkpt>
      <trkpt lat="49.6977" lon="4.77578">
        <ele>198</ele>
        <time>2016-08-09T16:39:50Z</time>
      </trkpt>
      <trkpt lat="49.69765" lon="4.7761">
        <ele>199</ele>
        <time>2016-08-09T16:40:01Z</time>
      </trkpt>
      <trkpt lat="49.69741" lon="4.77592">
        <ele>200</ele>
        <time>2016-08-09T16:40:12Z</time>
      </trkpt>
      <trkpt lat="49.6973" lon="4.77585">
        <ele>199</ele>
        <time>2016-08-09T16:40:17Z</time>
      </trkpt>
      <trkpt lat="49.69718" lon="4.77575">
        <ele>203</ele>
        <time>2016-08-09T16:40:24Z</time>
      </trkpt>
      <trkpt lat="49.69698" lon="4.77568">
        <ele>202</ele>
        <time>2016-08-09T16:40:33Z</time>
      </trkpt>
      <trkpt lat="49.69687" lon="4.7756">
        <ele>202</ele>
        <time>2016-08-09T16:40:39Z</time>
      </trkpt>
      <trkpt lat="49.6968" lon="4.77555">
        <ele>200</ele>
        <time>2016-08-09T16:40:42Z</time>
      </trkpt>
      <trkpt lat="49.69671" lon="4.77549">
        <ele>201</ele>
        <time>2016-08-09T16:40:46Z</time>
      </trkpt>
      <trkpt lat="49.69651" lon="4.77536">
        <ele>202</ele>
        <time>2016-08-09T16:40:54Z</time>
      </trkpt>
      <trkpt lat="49.69631" lon="4.77528">
        <ele>200</ele>
        <time>2016-08-09T16:41:02Z</time>
      </trkpt>
      <trkpt lat="49.69615" lon="4.77521">
        <ele>200</ele>
        <time>2016-08-09T16:41:08Z</time>
      </trkpt>
      <trkpt lat="49.69598" lon="4.77512">
        <ele>199</ele>
        <time>2016-08-09T16:41:16Z</time>
      </trkpt>
      <trkpt lat="49.69578" lon="4.77498">
        <ele>199</ele>
        <time>2016-08-09T16:41:25Z</time>
      </trkpt>
      <trkpt lat="49.69568" lon="4.77493">
        <ele>200</ele>
        <time>2016-08-09T16:41:31Z</time>
      </trkpt>
      <trkpt lat="49.69549" lon="4.77482">
        <ele>200</ele>
        <time>2016-08-09T16:41:40Z</time>
      </trkpt>
      <trkpt lat="49.69531" lon="4.77471">
        <ele>200</ele>
        <time>2016-08-09T16:41:48Z</time>
      </trkpt>
      <trkpt lat="49.69513" lon="4.77453">
        <ele>198</ele>
        <time>2016-08-09T16:41:57Z</time>
      </trkpt>
      <trkpt lat="49.695" lon="4.77443">
        <ele>199</ele>
        <time>2016-08-09T16:42:03Z</time>
      </trkpt>
      <trkpt lat="49.69483" lon="4.77428">
        <ele>197</ele>
        <time>2016-08-09T16:42:11Z</time>
      </trkpt>
      <trkpt lat="49.69465" lon="4.7741">
        <ele>200</ele>
        <time>2016-08-09T16:42:20Z</time>
      </trkpt>
      <trkpt lat="49.69444" lon="4.77391">
        <ele>202</ele>
        <time>2016-08-09T16:42:30Z</time>
      </trkpt>
      <trkpt lat="49.69425" lon="4.77373">
        <ele>200</ele>
        <time>2016-08-09T16:42:39Z</time>
      </trkpt>
      <trkpt lat="49.69408" lon="4.77358">
        <ele>200</ele>
        <time>2016-08-09T16:42:46Z</time>
      </trkpt>
      <trkpt lat="49.69394" lon="4.77342">
        <ele>198</ele>
        <time>2016-08-09T16:42:54Z</time>
      </trkpt>
      <trkpt lat="49.69374" lon="4.77316">
        <ele>198</ele>
        <time>2016-08-09T16:43:04Z</time>
      </trkpt>
      <trkpt lat="49.69369" lon="4.77308">
        <ele>198</ele>
        <time>2016-08-09T16:43:07Z</time>
      </trkpt>
      <trkpt lat="49.6936" lon="4.77289">
        <ele>197</ele>
        <time>2016-08-09T16:43:14Z</time>
      </trkpt>
      <trkpt lat="49.69352" lon="4.77272">
        <ele>198</ele>
        <time>2016-08-09T16:43:20Z</time>
      </trkpt>
      <trkpt lat="49.69338" lon="4.77246">
        <ele>196</ele>
        <time>2016-08-09T16:43:28Z</time>
      </trkpt>
      <trkpt lat="49.69328" lon="4.77229">
        <ele>196</ele>
        <time>2016-08-09T16:43:35Z</time>
      </trkpt>
      <trkpt lat="49.69309" lon="4.77215">
        <ele>195</ele>
        <time>2016-08-09T16:43:44Z</time>
      </trkpt>
      <trkpt lat="49.69302" lon="4.7721">
        <ele>195</ele>
        <time>2016-08-09T16:43:47Z</time>
      </trkpt>
      <trkpt lat="49.69283" lon="4.772">
        <ele>193</ele>
        <time>2016-08-09T16:43:55Z</time>
      </trkpt>
      <trkpt lat="49.6927" lon="4.77196">
        <ele>194</ele>
        <time>2016-08-09T16:44:01Z</time>
      </trkpt>
      <trkpt lat="49.69257" lon="4.77192">
        <ele>195</ele>
        <time>2016-08-09T16:44:06Z</time>
      </trkpt>
      <trkpt lat="49.69239" lon="4.77186">
        <ele>192</ele>
        <time>2016-08-09T16:44:14Z</time>
      </trkpt>
      <trkpt lat="49.69221" lon="4.77178">
        <ele>191</ele>
        <time>2016-08-09T16:44:22Z</time>
      </trkpt>
      <trkpt lat="49.692" lon="4.77171">
        <ele>193</ele>
        <time>2016-08-09T16:44:31Z</time>
      </trkpt>
      <trkpt lat="49.69177" lon="4.77163">
        <ele>195</ele>
        <time>2016-08-09T16:44:41Z</time>
      </trkpt>
      <trkpt lat="49.69161" lon="4.77158">
        <ele>194</ele>
        <time>2016-08-09T16:44:48Z</time>
      </trkpt>
      <trkpt lat="49.69141" lon="4.77149">
        <ele>192</ele>
        <time>2016-08-09T16:44:57Z</time>
      </trkpt>
      <trkpt lat="49.69119" lon="4.77145">
        <ele>194</ele>
        <time>2016-08-09T16:45:05Z</time>
      </trkpt>
      <trkpt lat="49.69104" lon="4.77145">
        <ele>192</ele>
        <time>2016-08-09T16:45:10Z</time>
      </trkpt>
      <trkpt lat="49.69092" lon="4.77142">
        <ele>195</ele>
        <time>2016-08-09T16:45:15Z</time>
      </trkpt>
      <trkpt lat="49.69073" lon="4.77135">
        <ele>195</ele>
        <time>2016-08-09T16:45:23Z</time>
      </trkpt>
      <trkpt lat="49.6906" lon="4.77131">
        <ele>197</ele>
        <time>2016-08-09T16:45:29Z</time>
      </trkpt>
      <trkpt lat="49.69034" lon="4.77122">
        <ele>195</ele>
        <time>2016-08-09T16:45:39Z</time>
      </trkpt>
      <trkpt lat="49.69021" lon="4.77117">
        <ele>195</ele>
        <time>2016-08-09T16:45:45Z</time>
      </trkpt>
      <trkpt lat="49.69002" lon="4.77112">
        <ele>197</ele>
        <time>2016-08-09T16:45:53Z</time>
      </trkpt>
      <trkpt lat="49.68994" lon="4.77109">
        <ele>197</ele>
        <time>2016-08-09T16:45:56Z</time>
      </trkpt>
      <trkpt lat="49.68978" lon="4.77104">
        <ele>198</ele>
        <time>2016-08-09T16:46:03Z</time>
      </trkpt>
      <trkpt lat="49.68958" lon="4.77094">
        <ele>197</ele>
        <time>2016-08-09T16:46:12Z</time>
      </trkpt>
      <trkpt lat="49.68942" lon="4.7709">
        <ele>198</ele>
        <time>2016-08-09T16:46:18Z</time>
      </trkpt>
      <trkpt lat="49.68925" lon="4.77084">
        <ele>197</ele>
        <time>2016-08-09T16:46:26Z</time>
      </trkpt>
      <trkpt lat="49.68903" lon="4.77078">
        <ele>196</ele>
        <time>2016-08-09T16:46:36Z</time>
      </trkpt>
      <trkpt lat="49.68891" lon="4.77075">
        <ele>198</ele>
        <time>2016-08-09T16:46:41Z</time>
      </trkpt>
      <trkpt lat="49.68882" lon="4.77074">
        <ele>199</ele>
        <time>2016-08-09T16:46:44Z</time>
      </trkpt>
      <trkpt lat="49.68872" lon="4.77071">
        <ele>198</ele>
        <time>2016-08-09T16:46:48Z</time>
      </trkpt>
      <trkpt lat="49.68855" lon="4.77065">
        <ele>197</ele>
        <time>2016-08-09T16:46:56Z</time>
      </trkpt>
      <trkpt lat="49.6883" lon="4.77056">
        <ele>194</ele>
        <time>2016-08-09T16:47:07Z</time>
      </trkpt>
      <trkpt lat="49.68817" lon="4.77052">
        <ele>193</ele>
        <time>2016-08-09T16:47:14Z</time>
      </trkpt>
      <trkpt lat="49.68803" lon="4.77049">
        <ele>195</ele>
        <time>2016-08-09T16:47:20Z</time>
      </trkpt>
      <trkpt lat="49.68781" lon="4.7704">
        <ele>192</ele>
        <time>2016-08-09T16:47:31Z</time>
      </trkpt>
      <trkpt lat="49.68763" lon="4.77033">
        <ele>194</ele>
        <time>2016-08-09T16:47:38Z</time>
      </trkpt>
      <trkpt lat="49.68746" lon="4.77037">
        <ele>201</ele>
        <time>2016-08-09T16:47:45Z</time>
      </trkpt>
      <trkpt lat="49.68734" lon="4.77052">
        <ele>201</ele>
        <time>2016-08-09T16:47:53Z</time>
      </trkpt>
      <trkpt lat="49.68714" lon="4.77082">
        <ele>202</ele>
        <time>2016-08-09T16:48:03Z</time>
      </trkpt>
      <trkpt lat="49.68709" lon="4.77089">
        <ele>203</ele>
        <time>2016-08-09T16:48:06Z</time>
      </trkpt>
      <trkpt lat="49.68702" lon="4.77099">
        <ele>204</ele>
        <time>2016-08-09T16:48:10Z</time>
      </trkpt>
      <trkpt lat="49.68693" lon="4.77112">
        <ele>203</ele>
        <time>2016-08-09T16:48:15Z</time>
      </trkpt>
      <trkpt lat="49.68694" lon="4.77138">
        <ele>205</ele>
        <time>2016-08-09T16:48:23Z</time>
      </trkpt>
      <trkpt lat="49.68712" lon="4.77137">
        <ele>203</ele>
        <time>2016-08-09T16:48:31Z</time>
      </trkpt>
      <trkpt lat="49.68726" lon="4.77131">
        <ele>205</ele>
        <time>2016-08-09T16:48:37Z</time>
      </trkpt>
      <trkpt lat="49.68737" lon="4.77129">
        <ele>203</ele>
        <time>2016-08-09T16:48:42Z</time>
      </trkpt>
      <trkpt lat="49.68747" lon="4.77129">
        <ele>202</ele>
        <time>2016-08-09T16:48:47Z</time>
      </trkpt>
      <trkpt lat="49.68761" lon="4.77133">
        <ele>203</ele>
        <time>2016-08-09T16:48:53Z</time>
      </trkpt>
      <trkpt lat="49.68781" lon="4.77142">
        <ele>202</ele>
        <time>2016-08-09T16:49:02Z</time>
      </trkpt>
      <trkpt lat="49.688" lon="4.77153">
        <ele>201</ele>
        <time>2016-08-09T16:49:11Z</time>
      </trkpt>
      <trkpt lat="49.68812" lon="4.77159">
        <ele>199</ele>
        <time>2016-08-09T16:49:17Z</time>
      </trkpt>
      <trkpt lat="49.68831" lon="4.77168">
        <ele>200</ele>
        <time>2016-08-09T16:49:26Z</time>
      </trkpt>
      <trkpt lat="49.68846" lon="4.77174">
        <ele>201</ele>
        <time>2016-08-09T16:49:32Z</time>
      </trkpt>
      <trkpt lat="49.68863" lon="4.77185">
        <ele>200</ele>
        <time>2016-08-09T16:49:40Z</time>
      </trkpt>
      <trkpt lat="49.6888" lon="4.77196">
        <ele>201</ele>
        <time>2016-08-09T16:49:47Z</time>
      </trkpt>
      <trkpt lat="49.68895" lon="4.77212">
        <ele>201</ele>
        <time>2016-08-09T16:49:54Z</time>
      </trkpt>
      <trkpt lat="49.68901" lon="4.7722">
        <ele>202</ele>
        <time>2016-08-09T16:49:57Z</time>
      </trkpt>
      <trkpt lat="49.68915" lon="4.77242">
        <ele>202</ele>
        <time>2016-08-09T16:50:05Z</time>
      </trkpt>
      <trkpt lat="49.68924" lon="4.77255">
        <ele>201</ele>
        <time>2016-08-09T16:50:10Z</time>
      </trkpt>
      <trkpt lat="49.68939" lon="4.77277">
        <ele>201</ele>
        <time>2016-08-09T16:50:19Z</time>
      </trkpt>
      <trkpt lat="49.68955" lon="4.773">
        <ele>201</ele>
        <time>2016-08-09T16:50:28Z</time>
      </trkpt>
      <trkpt lat="49.68968" lon="4.77321">
        <ele>199</ele>
        <time>2016-08-09T16:50:37Z</time>
      </trkpt>
      <trkpt lat="49.68984" lon="4.77342">
        <ele>200</ele>
        <time>2016-08-09T16:50:48Z</time>
      </trkpt>
      <trkpt lat="49.68996" lon="4.77361">
        <ele>202</ele>
        <time>2016-08-09T16:50:56Z</time>
      </trkpt>
      <trkpt lat="49.69004" lon="4.7737">
        <ele>204</ele>
        <time>2016-08-09T16:51:01Z</time>
      </trkpt>
      <trkpt lat="49.69014" lon="4.77386">
        <ele>206</ele>
        <time>2016-08-09T16:51:07Z</time>
      </trkpt>
      <trkpt lat="49.69027" lon="4.77406">
        <ele>208</ele>
        <time>2016-08-09T16:51:15Z</time>
      </trkpt>
      <trkpt lat="49.69037" lon="4.7743">
        <ele>210</ele>
        <time>2016-08-09T16:51:23Z</time>
      </trkpt>
      <trkpt lat="49.69047" lon="4.77471">
        <ele>213</ele>
        <time>2016-08-09T16:51:35Z</time>
      </trkpt>
      <trkpt lat="49.69056" lon="4.77503">
        <ele>214</ele>
        <time>2016-08-09T16:51:45Z</time>
      </trkpt>
      <trkpt lat="49.6906" lon="4.77522">
        <ele>214</ele>
        <time>2016-08-09T16:51:51Z</time>
      </trkpt>
      <trkpt lat="49.69065" lon="4.77545">
        <ele>212</ele>
        <time>2016-08-09T16:51:59Z</time>
      </trkpt>
      <trkpt lat="49.69073" lon="4.77572">
        <ele>213</ele>
        <time>2016-08-09T16:52:09Z</time>
      </trkpt>
      <trkpt lat="49.69081" lon="4.77612">
        <ele>215</ele>
        <time>2016-08-09T16:52:21Z</time>
      </trkpt>
      <trkpt lat="49.69086" lon="4.77643">
        <ele>212</ele>
        <time>2016-08-09T16:52:31Z</time>
      </trkpt>
      <trkpt lat="49.69091" lon="4.77674">
        <ele>214</ele>
        <time>2016-08-09T16:52:40Z</time>
      </trkpt>
      <trkpt lat="49.69096" lon="4.77703">
        <ele>223</ele>
        <time>2016-08-09T16:52:49Z</time>
      </trkpt>
      <trkpt lat="49.69098" lon="4.77723">
        <ele>223</ele>
        <time>2016-08-09T16:52:54Z</time>
      </trkpt>
      <trkpt lat="49.69101" lon="4.77736">
        <ele>223</ele>
        <time>2016-08-09T16:52:58Z</time>
      </trkpt>
      <trkpt lat="49.69105" lon="4.77756">
        <ele>223</ele>
        <time>2016-08-09T16:53:04Z</time>
      </trkpt>
      <trkpt lat="49.69112" lon="4.77788">
        <ele>223</ele>
        <time>2016-08-09T16:53:15Z</time>
      </trkpt>
      <trkpt lat="49.69117" lon="4.77811">
        <ele>226</ele>
        <time>2016-08-09T16:53:23Z</time>
      </trkpt>
      <trkpt lat="49.69121" lon="4.77836">
        <ele>222</ele>
        <time>2016-08-09T16:53:32Z</time>
      </trkpt>
      <trkpt lat="49.69127" lon="4.77863">
        <ele>217</ele>
        <time>2016-08-09T16:53:41Z</time>
      </trkpt>
      <trkpt lat="49.69129" lon="4.77879">
        <ele>223</ele>
        <time>2016-08-09T16:53:46Z</time>
      </trkpt>
      <trkpt lat="49.69132" lon="4.77911">
        <ele>229</ele>
        <time>2016-08-09T16:53:56Z</time>
      </trkpt>
      <trkpt lat="49.69135" lon="4.77931">
        <ele>231</ele>
        <time>2016-08-09T16:54:02Z</time>
      </trkpt>
      <trkpt lat="49.69137" lon="4.77941">
        <ele>231</ele>
        <time>2016-08-09T16:54:05Z</time>
      </trkpt>
      <trkpt lat="49.69141" lon="4.77971">
        <ele>235</ele>
        <time>2016-08-09T16:54:14Z</time>
      </trkpt>
      <trkpt lat="49.69147" lon="4.78007">
        <ele>238</ele>
        <time>2016-08-09T16:54:25Z</time>
      </trkpt>
      <trkpt lat="49.69152" lon="4.78031">
        <ele>235</ele>
        <time>2016-08-09T16:54:34Z</time>
      </trkpt>
      <trkpt lat="49.69161" lon="4.78068">
        <ele>242</ele>
        <time>2016-08-09T16:54:45Z</time>
      </trkpt>
      <trkpt lat="49.69167" lon="4.78083">
        <ele>244</ele>
        <time>2016-08-09T16:54:52Z</time>
      </trkpt>
      <trkpt lat="49.69168" lon="4.78086">
        <ele>245</ele>
        <time>2016-08-09T16:54:54Z</time>
      </trkpt>
      <trkpt lat="49.69168" lon="4.78086">
        <ele>195</ele>
        <time>2016-08-09T16:55:01Z</time>
      </trkpt>
      <trkpt lat="49.69168" lon="4.78086">
        <ele>195</ele>
        <time>2016-08-09T16:56:24Z</time>
      </trkpt>
      <trkpt lat="49.69169" lon="4.78119">
        <ele>245</ele>
        <time>2016-08-09T16:56:24Z</time>
      </trkpt>
      <trkpt lat="49.69167" lon="4.78148">
        <ele>244</ele>
        <time>2016-08-09T16:56:32Z</time>
      </trkpt>
      <trkpt lat="49.69167" lon="4.78167">
        <ele>239</ele>
        <time>2016-08-09T16:56:37Z</time>
      </trkpt>
      <trkpt lat="49.69165" lon="4.78202">
        <ele>249</ele>
        <time>2016-08-09T16:56:46Z</time>
      </trkpt>
      <trkpt lat="49.69162" lon="4.78236">
        <ele>249</ele>
        <time>2016-08-09T16:56:57Z</time>
      </trkpt>
      <trkpt lat="49.69157" lon="4.78265">
        <ele>250</ele>
        <time>2016-08-09T16:57:06Z</time>
      </trkpt>
      <trkpt lat="49.69157" lon="4.78296">
        <ele>250</ele>
        <time>2016-08-09T16:57:16Z</time>
      </trkpt>
      <trkpt lat="49.69158" lon="4.78314">
        <ele>252</ele>
        <time>2016-08-09T16:57:21Z</time>
      </trkpt>
      <trkpt lat="49.69161" lon="4.78344">
        <ele>257</ele>
        <time>2016-08-09T16:57:30Z</time>
      </trkpt>
      <trkpt lat="49.69162" lon="4.78355">
        <ele>259</ele>
        <time>2016-08-09T16:57:33Z</time>
      </trkpt>
      <trkpt lat="49.69163" lon="4.78387">
        <ele>251</ele>
        <time>2016-08-09T16:57:43Z</time>
      </trkpt>
      <trkpt lat="49.69165" lon="4.78425">
        <ele>259</ele>
        <time>2016-08-09T16:57:54Z</time>
      </trkpt>
      <trkpt lat="49.69168" lon="4.78462">
        <ele>257</ele>
        <time>2016-08-09T16:58:04Z</time>
      </trkpt>
      <trkpt lat="49.69169" lon="4.78485">
        <ele>263</ele>
        <time>2016-08-09T16:58:11Z</time>
      </trkpt>
      <trkpt lat="49.69168" lon="4.78517">
        <ele>258</ele>
        <time>2016-08-09T16:58:23Z</time>
      </trkpt>
      <trkpt lat="49.69162" lon="4.78535">
        <ele>258</ele>
        <time>2016-08-09T16:58:36Z</time>
      </trkpt>
      <trkpt lat="49.6915" lon="4.78557">
        <ele>270</ele>
        <time>2016-08-09T16:58:53Z</time>
      </trkpt>
      <trkpt lat="49.69138" lon="4.7857">
        <ele>266</ele>
        <time>2016-08-09T16:59:06Z</time>
      </trkpt>
      <trkpt lat="49.69117" lon="4.78579">
        <ele>274</ele>
        <time>2016-08-09T16:59:24Z</time>
      </trkpt>
      <trkpt lat="49.691" lon="4.7858">
        <ele>271</ele>
        <time>2016-08-09T16:59:36Z</time>
      </trkpt>
      <trkpt lat="49.69088" lon="4.78584">
        <ele>253</ele>
        <time>2016-08-09T16:59:50Z</time>
      </trkpt>
      <trkpt lat="49.69069" lon="4.78589">
        <ele>261</ele>
        <time>2016-08-09T17:00:04Z</time>
      </trkpt>
      <trkpt lat="49.6906" lon="4.78595">
        <ele>261</ele>
        <time>2016-08-09T17:00:12Z</time>
      </trkpt>
      <trkpt lat="49.69041" lon="4.78599">
        <ele>263</ele>
        <time>2016-08-09T17:00:27Z</time>
      </trkpt>
      <trkpt lat="49.69029" lon="4.78604">
        <ele>268</ele>
        <time>2016-08-09T17:00:36Z</time>
      </trkpt>
      <trkpt lat="49.69016" lon="4.78606">
        <ele>282</ele>
        <time>2016-08-09T17:00:48Z</time>
      </trkpt>
      <trkpt lat="49.69002" lon="4.7861">
        <ele>260</ele>
        <time>2016-08-09T17:01:02Z</time>
      </trkpt>
      <trkpt lat="49.68988" lon="4.78615">
        <ele>277</ele>
        <time>2016-08-09T17:01:14Z</time>
      </trkpt>
      <trkpt lat="49.68974" lon="4.78619">
        <ele>295</ele>
        <time>2016-08-09T17:01:29Z</time>
      </trkpt>
      <trkpt lat="49.68954" lon="4.78636">
        <ele>303</ele>
        <time>2016-08-09T17:01:47Z</time>
      </trkpt>
      <trkpt lat="49.68947" lon="4.78652">
        <ele>306</ele>
        <time>2016-08-09T17:02:01Z</time>
      </trkpt>
      <trkpt lat="49.68942" lon="4.78663">
        <ele>307</ele>
        <time>2016-08-09T17:02:09Z</time>
      </trkpt>
      <trkpt lat="49.68927" lon="4.78683">
        <ele>309</ele>
        <time>2016-08-09T17:02:27Z</time>
      </trkpt>
      <trkpt lat="49.68918" lon="4.78706">
        <ele>310</ele>
        <time>2016-08-09T17:02:42Z</time>
      </trkpt>
      <trkpt lat="49.68908" lon="4.78724">
        <ele>309</ele>
        <time>2016-08-09T17:02:55Z</time>
      </trkpt>
      <trkpt lat="49.68902" lon="4.7874">
        <ele>308</ele>
        <time>2016-08-09T17:03:07Z</time>
      </trkpt>
      <trkpt lat="49.68885" lon="4.78772">
        <ele>314</ele>
        <time>2016-08-09T17:03:24Z</time>
      </trkpt>
      <trkpt lat="49.68873" lon="4.78792">
        <ele>315</ele>
        <time>2016-08-09T17:03:32Z</time>
      </trkpt>
      <trkpt lat="49.68866" lon="4.78814">
        <ele>314</ele>
        <time>2016-08-09T17:03:39Z</time>
      </trkpt>
      <trkpt lat="49.68855" lon="4.78846">
        <ele>316</ele>
        <time>2016-08-09T17:03:49Z</time>
      </trkpt>
      <trkpt lat="49.68847" lon="4.78865">
        <ele>313</ele>
        <time>2016-08-09T17:03:57Z</time>
      </trkpt>
      <trkpt lat="49.68829" lon="4.78895">
        <ele>314</ele>
        <time>2016-08-09T17:04:08Z</time>
      </trkpt>
      <trkpt lat="49.68815" lon="4.7892">
        <ele>315</ele>
        <time>2016-08-09T17:04:15Z</time>
      </trkpt>
      <trkpt lat="49.68805" lon="4.78935">
        <ele>317</ele>
        <time>2016-08-09T17:04:22Z</time>
      </trkpt>
      <trkpt lat="49.68789" lon="4.78961">
        <ele>316</ele>
        <time>2016-08-09T17:04:31Z</time>
      </trkpt>
      <trkpt lat="49.68779" lon="4.79001">
        <ele>318</ele>
        <time>2016-08-09T17:04:43Z</time>
      </trkpt>
      <trkpt lat="49.68771" lon="4.79026">
        <ele>315</ele>
        <time>2016-08-09T17:04:53Z</time>
      </trkpt>
      <trkpt lat="49.68755" lon="4.79071">
        <ele>315</ele>
        <time>2016-08-09T17:05:07Z</time>
      </trkpt>
      <trkpt lat="49.68747" lon="4.79099">
        <ele>319</ele>
        <time>2016-08-09T17:05:14Z</time>
      </trkpt>
      <trkpt lat="49.68734" lon="4.79114">
        <ele>319</ele>
        <time>2016-08-09T17:05:23Z</time>
      </trkpt>
      <trkpt lat="49.68723" lon="4.79099">
        <ele>314</ele>
        <time>2016-08-09T17:05:31Z</time>
      </trkpt>
      <trkpt lat="49.68706" lon="4.7909">
        <ele>314</ele>
        <time>2016-08-09T17:05:40Z</time>
      </trkpt>
      <trkpt lat="49.68683" lon="4.79079">
        <ele>314</ele>
        <time>2016-08-09T17:05:51Z</time>
      </trkpt>
      <trkpt lat="49.68674" lon="4.79076">
        <ele>318</ele>
        <time>2016-08-09T17:05:54Z</time>
      </trkpt>
      <trkpt lat="49.68659" lon="4.79068">
        <ele>319</ele>
        <time>2016-08-09T17:06:02Z</time>
      </trkpt>
      <trkpt lat="49.68631" lon="4.79055">
        <ele>316</ele>
        <time>2016-08-09T17:06:13Z</time>
      </trkpt>
      <trkpt lat="49.68622" lon="4.79051">
        <ele>314</ele>
        <time>2016-08-09T17:06:16Z</time>
      </trkpt>
      <trkpt lat="49.68601" lon="4.79042">
        <ele>313</ele>
        <time>2016-08-09T17:06:22Z</time>
      </trkpt>
      <trkpt lat="49.68579" lon="4.7903">
        <ele>314</ele>
        <time>2016-08-09T17:06:30Z</time>
      </trkpt>
      <trkpt lat="49.68557" lon="4.79016">
        <ele>316</ele>
        <time>2016-08-09T17:06:39Z</time>
      </trkpt>
      <trkpt lat="49.68537" lon="4.79008">
        <ele>317</ele>
        <time>2016-08-09T17:06:47Z</time>
      </trkpt>
      <trkpt lat="49.6852" lon="4.79">
        <ele>318</ele>
        <time>2016-08-09T17:06:53Z</time>
      </trkpt>
      <trkpt lat="49.68503" lon="4.78993">
        <ele>319</ele>
        <time>2016-08-09T17:06:59Z</time>
      </trkpt>
      <trkpt lat="49.68482" lon="4.78986">
        <ele>319</ele>
        <time>2016-08-09T17:07:07Z</time>
      </trkpt>
      <trkpt lat="49.68468" lon="4.7898">
        <ele>320</ele>
        <time>2016-08-09T17:07:13Z</time>
      </trkpt>
      <trkpt lat="49.68446" lon="4.78972">
        <ele>319</ele>
        <time>2016-08-09T17:07:21Z</time>
      </trkpt>
      <trkpt lat="49.68431" lon="4.78958">
        <ele>320</ele>
        <time>2016-08-09T17:07:28Z</time>
      </trkpt>
      <trkpt lat="49.68415" lon="4.7895">
        <ele>322</ele>
        <time>2016-08-09T17:07:34Z</time>
      </trkpt>
      <trkpt lat="49.68399" lon="4.78943">
        <ele>318</ele>
        <time>2016-08-09T17:07:41Z</time>
      </trkpt>
      <trkpt lat="49.6838" lon="4.78926">
        <ele>317</ele>
        <time>2016-08-09T17:07:51Z</time>
      </trkpt>
      <trkpt lat="49.68371" lon="4.78919">
        <ele>319</ele>
        <time>2016-08-09T17:07:55Z</time>
      </trkpt>
      <trkpt lat="49.68353" lon="4.7891">
        <ele>318</ele>
        <time>2016-08-09T17:08:02Z</time>
      </trkpt>
      <trkpt lat="49.68339" lon="4.78889">
        <ele>314</ele>
        <time>2016-08-09T17:08:09Z</time>
      </trkpt>
      <trkpt lat="49.68331" lon="4.78871">
        <ele>313</ele>
        <time>2016-08-09T17:08:17Z</time>
      </trkpt>
      <trkpt lat="49.68319" lon="4.78854">
        <ele>310</ele>
        <time>2016-08-09T17:08:25Z</time>
      </trkpt>
      <trkpt lat="49.68302" lon="4.78835">
        <ele>313</ele>
        <time>2016-08-09T17:08:35Z</time>
      </trkpt>
      <trkpt lat="49.68279" lon="4.78823">
        <ele>311</ele>
        <time>2016-08-09T17:08:43Z</time>
      </trkpt>
      <trkpt lat="49.68266" lon="4.78805">
        <ele>313</ele>
        <time>2016-08-09T17:08:49Z</time>
      </trkpt>
      <trkpt lat="49.68245" lon="4.78795">
        <ele>312</ele>
        <time>2016-08-09T17:08:58Z</time>
      </trkpt>
      <trkpt lat="49.68229" lon="4.78785">
        <ele>309</ele>
        <time>2016-08-09T17:09:06Z</time>
      </trkpt>
      <trkpt lat="49.68213" lon="4.78775">
        <ele>309</ele>
        <time>2016-08-09T17:09:13Z</time>
      </trkpt>
      <trkpt lat="49.682" lon="4.78769">
        <ele>308</ele>
        <time>2016-08-09T17:09:18Z</time>
      </trkpt>
      <trkpt lat="49.68181" lon="4.7875">
        <ele>309</ele>
        <time>2016-08-09T17:09:25Z</time>
      </trkpt>
      <trkpt lat="49.68169" lon="4.78727">
        <ele>308</ele>
        <time>2016-08-09T17:09:31Z</time>
      </trkpt>
      <trkpt lat="49.68154" lon="4.78704">
        <ele>308</ele>
        <time>2016-08-09T17:09:39Z</time>
      </trkpt>
      <trkpt lat="49.68139" lon="4.78667">
        <ele>310</ele>
        <time>2016-08-09T17:09:50Z</time>
      </trkpt>
      <trkpt lat="49.68129" lon="4.7864">
        <ele>308</ele>
        <time>2016-08-09T17:09:56Z</time>
      </trkpt>
      <trkpt lat="49.68117" lon="4.7861">
        <ele>305</ele>
        <time>2016-08-09T17:10:04Z</time>
      </trkpt>
      <trkpt lat="49.6811" lon="4.78594">
        <ele>305</ele>
        <time>2016-08-09T17:10:08Z</time>
      </trkpt>
      <trkpt lat="49.68101" lon="4.78572">
        <ele>300</ele>
        <time>2016-08-09T17:10:14Z</time>
      </trkpt>
      <trkpt lat="49.68097" lon="4.78563">
        <ele>301</ele>
        <time>2016-08-09T17:10:17Z</time>
      </trkpt>
      <trkpt lat="49.68093" lon="4.78553">
        <ele>301</ele>
        <time>2016-08-09T17:10:20Z</time>
      </trkpt>
      <trkpt lat="49.68082" lon="4.7853">
        <ele>303</ele>
        <time>2016-08-09T17:10:27Z</time>
      </trkpt>
      <trkpt lat="49.68067" lon="4.78504">
        <ele>303</ele>
        <time>2016-08-09T17:10:35Z</time>
      </trkpt>
      <trkpt lat="49.68056" lon="4.78484">
        <ele>303</ele>
        <time>2016-08-09T17:10:41Z</time>
      </trkpt>
      <trkpt lat="49.68049" lon="4.78474">
        <ele>302</ele>
        <time>2016-08-09T17:10:44Z</time>
      </trkpt>
      <trkpt lat="49.68038" lon="4.7846">
        <ele>301</ele>
        <time>2016-08-09T17:10:49Z</time>
      </trkpt>
      <trkpt lat="49.68029" lon="4.78447">
        <ele>301</ele>
        <time>2016-08-09T17:10:54Z</time>
      </trkpt>
      <trkpt lat="49.68022" lon="4.7843">
        <ele>301</ele>
        <time>2016-08-09T17:11:01Z</time>
      </trkpt>
      <trkpt lat="49.68013" lon="4.78413">
        <ele>303</ele>
        <time>2016-08-09T17:11:08Z</time>
      </trkpt>
      <trkpt lat="49.68004" lon="4.78404">
        <ele>302</ele>
        <time>2016-08-09T17:11:13Z</time>
      </trkpt>
      <trkpt lat="49.67994" lon="4.78382">
        <ele>301</ele>
        <time>2016-08-09T17:11:22Z</time>
      </trkpt>
      <trkpt lat="49.6799" lon="4.78346">
        <ele>300</ele>
        <time>2016-08-09T17:11:34Z</time>
      </trkpt>
      <trkpt lat="49.67976" lon="4.78306">
        <ele>294</ele>
        <time>2016-08-09T17:11:46Z</time>
      </trkpt>
      <trkpt lat="49.67958" lon="4.78268">
        <ele>283</ele>
        <time>2016-08-09T17:11:56Z</time>
      </trkpt>
      <trkpt lat="49.67947" lon="4.78255">
        <ele>298</ele>
        <time>2016-08-09T17:12:01Z</time>
      </trkpt>
      <trkpt lat="49.67927" lon="4.7824">
        <ele>298</ele>
        <time>2016-08-09T17:12:11Z</time>
      </trkpt>
      <trkpt lat="49.6791" lon="4.78219">
        <ele>298</ele>
        <time>2016-08-09T17:12:19Z</time>
      </trkpt>
      <trkpt lat="49.6789" lon="4.78205">
        <ele>294</ele>
        <time>2016-08-09T17:12:28Z</time>
      </trkpt>
      <trkpt lat="49.67876" lon="4.78197">
        <ele>294</ele>
        <time>2016-08-09T17:12:34Z</time>
      </trkpt>
      <trkpt lat="49.67855" lon="4.78177">
        <ele>288</ele>
        <time>2016-08-09T17:12:42Z</time>
      </trkpt>
      <trkpt lat="49.67844" lon="4.7817">
        <ele>294</ele>
        <time>2016-08-09T17:12:47Z</time>
      </trkpt>
      <trkpt lat="49.67831" lon="4.78162">
        <ele>298</ele>
        <time>2016-08-09T17:12:53Z</time>
      </trkpt>
      <trkpt lat="49.67815" lon="4.78156">
        <ele>297</ele>
        <time>2016-08-09T17:13:00Z</time>
      </trkpt>
      <trkpt lat="49.67787" lon="4.78128">
        <ele>298</ele>
        <time>2016-08-09T17:13:09Z</time>
      </trkpt>
      <trkpt lat="49.67773" lon="4.78115">
        <ele>297</ele>
        <time>2016-08-09T17:13:14Z</time>
      </trkpt>
      <trkpt lat="49.67752" lon="4.781">
        <ele>293</ele>
        <time>2016-08-09T17:13:21Z</time>
      </trkpt>
      <trkpt lat="49.67734" lon="4.78092">
        <ele>292</ele>
        <time>2016-08-09T17:13:28Z</time>
      </trkpt>
      <trkpt lat="49.67717" lon="4.78087">
        <ele>293</ele>
        <time>2016-08-09T17:13:35Z</time>
      </trkpt>
      <trkpt lat="49.67708" lon="4.78084">
        <ele>293</ele>
        <time>2016-08-09T17:13:39Z</time>
      </trkpt>
      <trkpt lat="49.67688" lon="4.7808">
        <ele>295</ele>
        <time>2016-08-09T17:13:47Z</time>
      </trkpt>
      <trkpt lat="49.67678" lon="4.7808">
        <ele>294</ele>
        <time>2016-08-09T17:13:51Z</time>
      </trkpt>
      <trkpt lat="49.67659" lon="4.78081">
        <ele>294</ele>
        <time>2016-08-09T17:13:59Z</time>
      </trkpt>
      <trkpt lat="49.67638" lon="4.78088">
        <ele>296</ele>
        <time>2016-08-09T17:14:09Z</time>
      </trkpt>
      <trkpt lat="49.6762" lon="4.78092">
        <ele>296</ele>
        <time>2016-08-09T17:14:16Z</time>
      </trkpt>
      <trkpt lat="49.67604" lon="4.78098">
        <ele>299</ele>
        <time>2016-08-09T17:14:23Z</time>
      </trkpt>
      <trkpt lat="49.67585" lon="4.78105">
        <ele>299</ele>
        <time>2016-08-09T17:14:32Z</time>
      </trkpt>
      <trkpt lat="49.67565" lon="4.78116">
        <ele>300</ele>
        <time>2016-08-09T17:14:41Z</time>
      </trkpt>
      <trkpt lat="49.67553" lon="4.78124">
        <ele>301</ele>
        <time>2016-08-09T17:14:48Z</time>
      </trkpt>
      <trkpt lat="49.67538" lon="4.7814">
        <ele>303</ele>
        <time>2016-08-09T17:14:55Z</time>
      </trkpt>
      <trkpt lat="49.67522" lon="4.7815">
        <ele>308</ele>
        <time>2016-08-09T17:15:04Z</time>
      </trkpt>
      <trkpt lat="49.67498" lon="4.78166">
        <ele>307</ele>
        <time>2016-08-09T17:15:18Z</time>
      </trkpt>
      <trkpt lat="49.6748" lon="4.78184">
        <ele>310</ele>
        <time>2016-08-09T17:15:27Z</time>
      </trkpt>
      <trkpt lat="49.67457" lon="4.78202">
        <ele>307</ele>
        <time>2016-08-09T17:15:38Z</time>
      </trkpt>
      <trkpt lat="49.67437" lon="4.78215">
        <ele>307</ele>
        <time>2016-08-09T17:15:47Z</time>
      </trkpt>
      <trkpt lat="49.67428" lon="4.78222">
        <ele>312</ele>
        <time>2016-08-09T17:15:51Z</time>
      </trkpt>
      <trkpt lat="49.67413" lon="4.78235">
        <ele>313</ele>
        <time>2016-08-09T17:16:00Z</time>
      </trkpt>
      <trkpt lat="49.67397" lon="4.78255">
        <ele>310</ele>
        <time>2016-08-09T17:16:09Z</time>
      </trkpt>
      <trkpt lat="49.67384" lon="4.78265">
        <ele>313</ele>
        <time>2016-08-09T17:16:15Z</time>
      </trkpt>
      <trkpt lat="49.67365" lon="4.78271">
        <ele>315</ele>
        <time>2016-08-09T17:16:25Z</time>
      </trkpt>
      <trkpt lat="49.67349" lon="4.78276">
        <ele>315</ele>
        <time>2016-08-09T17:16:33Z</time>
      </trkpt>
      <trkpt lat="49.67345" lon="4.78311">
        <ele>313</ele>
        <time>2016-08-09T17:16:46Z</time>
      </trkpt>
      <trkpt lat="49.67353" lon="4.78322">
        <ele>313</ele>
        <time>2016-08-09T17:16:55Z</time>
      </trkpt>
      <trkpt lat="49.67379" lon="4.78323">
        <ele>315</ele>
        <time>2016-08-09T17:17:07Z</time>
      </trkpt>
      <trkpt lat="49.67395" lon="4.78329">
        <ele>314</ele>
        <time>2016-08-09T17:17:17Z</time>
      </trkpt>
      <trkpt lat="49.67417" lon="4.78361">
        <ele>315</ele>
        <time>2016-08-09T17:17:31Z</time>
      </trkpt>
      <trkpt lat="49.67429" lon="4.78394">
        <ele>317</ele>
        <time>2016-08-09T17:17:41Z</time>
      </trkpt>
      <trkpt lat="49.67437" lon="4.78419">
        <ele>319</ele>
        <time>2016-08-09T17:17:50Z</time>
      </trkpt>
      <trkpt lat="49.67452" lon="4.7844">
        <ele>322</ele>
        <time>2016-08-09T17:17:58Z</time>
      </trkpt>
      <trkpt lat="49.67457" lon="4.78455">
        <ele>322</ele>
        <time>2016-08-09T17:18:05Z</time>
      </trkpt>
      <trkpt lat="49.67471" lon="4.78478">
        <ele>321</ele>
        <time>2016-08-09T17:18:16Z</time>
      </trkpt>
      <trkpt lat="49.67479" lon="4.78505">
        <ele>320</ele>
        <time>2016-08-09T17:18:25Z</time>
      </trkpt>
      <trkpt lat="49.6749" lon="4.78535">
        <ele>319</ele>
        <time>2016-08-09T17:18:35Z</time>
      </trkpt>
      <trkpt lat="49.675" lon="4.7856">
        <ele>319</ele>
        <time>2016-08-09T17:18:44Z</time>
      </trkpt>
      <trkpt lat="49.67511" lon="4.78589">
        <ele>319</ele>
        <time>2016-08-09T17:18:55Z</time>
      </trkpt>
      <trkpt lat="49.67516" lon="4.78606">
        <ele>323</ele>
        <time>2016-08-09T17:19:00Z</time>
      </trkpt>
      <trkpt lat="49.67519" lon="4.78633">
        <ele>318</ele>
        <time>2016-08-09T17:19:09Z</time>
      </trkpt>
      <trkpt lat="49.67522" lon="4.78671">
        <ele>318</ele>
        <time>2016-08-09T17:19:21Z</time>
      </trkpt>
      <trkpt lat="49.67526" lon="4.78706">
        <ele>319</ele>
        <time>2016-08-09T17:19:31Z</time>
      </trkpt>
      <trkpt lat="49.6753" lon="4.78739">
        <ele>318</ele>
        <time>2016-08-09T17:19:40Z</time>
      </trkpt>
      <trkpt lat="49.6753" lon="4.78769">
        <ele>319</ele>
        <time>2016-08-09T17:19:48Z</time>
      </trkpt>
      <trkpt lat="49.6753" lon="4.78803">
        <ele>320</ele>
        <time>2016-08-09T17:19:57Z</time>
      </trkpt>
      <trkpt lat="49.67533" lon="4.78829">
        <ele>322</ele>
        <time>2016-08-09T17:20:04Z</time>
      </trkpt>
      <trkpt lat="49.67535" lon="4.78862">
        <ele>321</ele>
        <time>2016-08-09T17:20:13Z</time>
      </trkpt>
      <trkpt lat="49.67539" lon="4.78894">
        <ele>323</ele>
        <time>2016-08-09T17:20:22Z</time>
      </trkpt>
      <trkpt lat="49.67539" lon="4.7892">
        <ele>324</ele>
        <time>2016-08-09T17:20:28Z</time>
      </trkpt>
      <trkpt lat="49.67543" lon="4.78947">
        <ele>321</ele>
        <time>2016-08-09T17:20:35Z</time>
      </trkpt>
      <trkpt lat="49.67542" lon="4.7897">
        <ele>321</ele>
        <time>2016-08-09T17:20:41Z</time>
      </trkpt>
      <trkpt lat="49.67542" lon="4.78987">
        <ele>325</ele>
        <time>2016-08-09T17:20:46Z</time>
      </trkpt>
      <trkpt lat="49.67543" lon="4.79023">
        <ele>324</ele>
        <time>2016-08-09T17:20:56Z</time>
      </trkpt>
      <trkpt lat="49.67545" lon="4.79064">
        <ele>326</ele>
        <time>2016-08-09T17:21:07Z</time>
      </trkpt>
      <trkpt lat="49.67549" lon="4.79097">
        <ele>326</ele>
        <time>2016-08-09T17:21:16Z</time>
      </trkpt>
      <trkpt lat="49.67552" lon="4.79114">
        <ele>328</ele>
        <time>2016-08-09T17:21:21Z</time>
      </trkpt>
      <trkpt lat="49.67561" lon="4.79123">
        <ele>324</ele>
        <time>2016-08-09T17:21:26Z</time>
      </trkpt>
      <trkpt lat="49.67585" lon="4.7913">
        <ele>326</ele>
        <time>2016-08-09T17:21:35Z</time>
      </trkpt>
      <trkpt lat="49.67596" lon="4.79135">
        <ele>325</ele>
        <time>2016-08-09T17:21:41Z</time>
      </trkpt>
      <trkpt lat="49.67619" lon="4.79145">
        <ele>325</ele>
        <time>2016-08-09T17:21:51Z</time>
      </trkpt>
      <trkpt lat="49.67639" lon="4.79155">
        <ele>324</ele>
        <time>2016-08-09T17:22:00Z</time>
      </trkpt>
      <trkpt lat="49.67651" lon="4.7916">
        <ele>328</ele>
        <time>2016-08-09T17:22:05Z</time>
      </trkpt>
      <trkpt lat="49.67659" lon="4.79164">
        <ele>328</ele>
        <time>2016-08-09T17:22:08Z</time>
      </trkpt>
      <trkpt lat="49.67667" lon="4.79167">
        <ele>328</ele>
        <time>2016-08-09T17:22:11Z</time>
      </trkpt>
      <trkpt lat="49.67688" lon="4.79175">
        <ele>327</ele>
        <time>2016-08-09T17:22:19Z</time>
      </trkpt>
      <trkpt lat="49.67708" lon="4.79184">
        <ele>328</ele>
        <time>2016-08-09T17:22:27Z</time>
      </trkpt>
      <trkpt lat="49.67727" lon="4.79193">
        <ele>326</ele>
        <time>2016-08-09T17:22:35Z</time>
      </trkpt>
      <trkpt lat="49.67743" lon="4.79203">
        <ele>319</ele>
        <time>2016-08-09T17:22:42Z</time>
      </trkpt>
      <trkpt lat="49.67763" lon="4.79211">
        <ele>322</ele>
        <time>2016-08-09T17:22:50Z</time>
      </trkpt>
      <trkpt lat="49.67772" lon="4.79213">
        <ele>324</ele>
        <time>2016-08-09T17:22:53Z</time>
      </trkpt>
      <trkpt lat="49.67789" lon="4.7922">
        <ele>322</ele>
        <time>2016-08-09T17:23:00Z</time>
      </trkpt>
      <trkpt lat="49.67796" lon="4.79223">
        <ele>323</ele>
        <time>2016-08-09T17:23:03Z</time>
      </trkpt>
      <trkpt lat="49.67817" lon="4.79231">
        <ele>322</ele>
        <time>2016-08-09T17:23:11Z</time>
      </trkpt>
      <trkpt lat="49.67825" lon="4.79234">
        <ele>322</ele>
        <time>2016-08-09T17:23:14Z</time>
      </trkpt>
      <trkpt lat="49.67833" lon="4.79237">
        <ele>321</ele>
        <time>2016-08-09T17:23:17Z</time>
      </trkpt>
      <trkpt lat="49.67857" lon="4.79245">
        <ele>321</ele>
        <time>2016-08-09T17:23:27Z</time>
      </trkpt>
      <trkpt lat="49.67879" lon="4.79255">
        <ele>327</ele>
        <time>2016-08-09T17:23:37Z</time>
      </trkpt>
      <trkpt lat="49.67902" lon="4.79265">
        <ele>329</ele>
        <time>2016-08-09T17:23:47Z</time>
      </trkpt>
      <trkpt lat="49.67923" lon="4.79272">
        <ele>328</ele>
        <time>2016-08-09T17:23:55Z</time>
      </trkpt>
      <trkpt lat="49.67934" lon="4.79276">
        <ele>324</ele>
        <time>2016-08-09T17:24:00Z</time>
      </trkpt>
      <trkpt lat="49.67948" lon="4.79283">
        <ele>324</ele>
        <time>2016-08-09T17:24:06Z</time>
      </trkpt>
      <trkpt lat="49.67967" lon="4.79285">
        <ele>324</ele>
        <time>2016-08-09T17:24:13Z</time>
      </trkpt>
      <trkpt lat="49.67979" lon="4.7927">
        <ele>323</ele>
        <time>2016-08-09T17:24:20Z</time>
      </trkpt>
      <trkpt lat="49.67995" lon="4.79243">
        <ele>319</ele>
        <time>2016-08-09T17:24:30Z</time>
      </trkpt>
      <trkpt lat="49.68018" lon="4.79214">
        <ele>319</ele>
        <time>2016-08-09T17:24:40Z</time>
      </trkpt>
      <trkpt lat="49.68034" lon="4.79209">
        <ele>323</ele>
        <time>2016-08-09T17:24:45Z</time>
      </trkpt>
      <trkpt lat="49.68048" lon="4.79218">
        <ele>320</ele>
        <time>2016-08-09T17:24:51Z</time>
      </trkpt>
      <trkpt lat="49.68056" lon="4.79224">
        <ele>319</ele>
        <time>2016-08-09T17:24:54Z</time>
      </trkpt>
      <trkpt lat="49.68071" lon="4.79235">
        <ele>316</ele>
        <time>2016-08-09T17:25:01Z</time>
      </trkpt>
      <trkpt lat="49.68078" lon="4.79238">
        <ele>318</ele>
        <time>2016-08-09T17:25:04Z</time>
      </trkpt>
      <trkpt lat="49.68097" lon="4.79247">
        <ele>317</ele>
        <time>2016-08-09T17:25:11Z</time>
      </trkpt>
      <trkpt lat="49.68105" lon="4.79252">
        <ele>315</ele>
        <time>2016-08-09T17:25:14Z</time>
      </trkpt>
      <trkpt lat="49.68126" lon="4.79261">
        <ele>318</ele>
        <time>2016-08-09T17:25:22Z</time>
      </trkpt>
      <trkpt lat="49.68134" lon="4.79264">
        <ele>317</ele>
        <time>2016-08-09T17:25:25Z</time>
      </trkpt>
      <trkpt lat="49.68142" lon="4.79267">
        <ele>319</ele>
        <time>2016-08-09T17:25:28Z</time>
      </trkpt>
      <trkpt lat="49.68159" lon="4.79277">
        <ele>318</ele>
        <time>2016-08-09T17:25:35Z</time>
      </trkpt>
      <trkpt lat="49.68168" lon="4.79282">
        <ele>318</ele>
        <time>2016-08-09T17:25:39Z</time>
      </trkpt>
      <trkpt lat="49.68177" lon="4.79288">
        <ele>316</ele>
        <time>2016-08-09T17:25:43Z</time>
      </trkpt>
      <trkpt lat="49.68194" lon="4.79297">
        <ele>315</ele>
        <time>2016-08-09T17:25:51Z</time>
      </trkpt>
      <trkpt lat="49.68208" lon="4.79311">
        <ele>315</ele>
        <time>2016-08-09T17:25:58Z</time>
      </trkpt>
      <trkpt lat="49.68229" lon="4.79318">
        <ele>315</ele>
        <time>2016-08-09T17:26:06Z</time>
      </trkpt>
      <trkpt lat="49.68241" lon="4.79331">
        <ele>315</ele>
        <time>2016-08-09T17:26:14Z</time>
      </trkpt>
      <trkpt lat="49.68271" lon="4.79345">
        <ele>314</ele>
        <time>2016-08-09T17:26:26Z</time>
      </trkpt>
      <trkpt lat="49.6829" lon="4.7935">
        <ele>311</ele>
        <time>2016-08-09T17:26:35Z</time>
      </trkpt>
      <trkpt lat="49.68306" lon="4.79361">
        <ele>310</ele>
        <time>2016-08-09T17:26:43Z</time>
      </trkpt>
      <trkpt lat="49.68334" lon="4.79373">
        <ele>313</ele>
        <time>2016-08-09T17:26:53Z</time>
      </trkpt>
      <trkpt lat="49.68352" lon="4.79378">
        <ele>310</ele>
        <time>2016-08-09T17:27:02Z</time>
      </trkpt>
      <trkpt lat="49.68376" lon="4.7939">
        <ele>308</ele>
        <time>2016-08-09T17:27:14Z</time>
      </trkpt>
      <trkpt lat="49.68399" lon="4.79404">
        <ele>310</ele>
        <time>2016-08-09T17:27:24Z</time>
      </trkpt>
      <trkpt lat="49.68413" lon="4.79411">
        <ele>310</ele>
        <time>2016-08-09T17:27:29Z</time>
      </trkpt>
      <trkpt lat="49.68429" lon="4.79415">
        <ele>311</ele>
        <time>2016-08-09T17:27:35Z</time>
      </trkpt>
      <trkpt lat="49.68441" lon="4.79424">
        <ele>311</ele>
        <time>2016-08-09T17:27:41Z</time>
      </trkpt>
      <trkpt lat="49.68455" lon="4.79429">
        <ele>310</ele>
        <time>2016-08-09T17:27:47Z</time>
      </trkpt>
      <trkpt lat="49.68474" lon="4.79445">
        <ele>311</ele>
        <time>2016-08-09T17:27:56Z</time>
      </trkpt>
      <trkpt lat="49.68495" lon="4.79466">
        <ele>311</ele>
        <time>2016-08-09T17:28:04Z</time>
      </trkpt>
      <trkpt lat="49.68511" lon="4.79485">
        <ele>313</ele>
        <time>2016-08-09T17:28:11Z</time>
      </trkpt>
      <trkpt lat="49.68518" lon="4.79513">
        <ele>311</ele>
        <time>2016-08-09T17:28:19Z</time>
      </trkpt>
      <trkpt lat="49.68534" lon="4.79543">
        <ele>315</ele>
        <time>2016-08-09T17:28:29Z</time>
      </trkpt>
      <trkpt lat="49.6855" lon="4.79572">
        <ele>316</ele>
        <time>2016-08-09T17:28:39Z</time>
      </trkpt>
      <trkpt lat="49.68559" lon="4.79597">
        <ele>317</ele>
        <time>2016-08-09T17:28:46Z</time>
      </trkpt>
      <trkpt lat="49.68564" lon="4.79633">
        <ele>316</ele>
        <time>2016-08-09T17:28:57Z</time>
      </trkpt>
      <trkpt lat="49.68557" lon="4.79661">
        <ele>316</ele>
        <time>2016-08-09T17:29:06Z</time>
      </trkpt>
      <trkpt lat="49.68547" lon="4.79692">
        <ele>316</ele>
        <time>2016-08-09T17:29:15Z</time>
      </trkpt>
      <trkpt lat="49.68543" lon="4.79703">
        <ele>316</ele>
        <time>2016-08-09T17:29:18Z</time>
      </trkpt>
      <trkpt lat="49.68534" lon="4.79737">
        <ele>317</ele>
        <time>2016-08-09T17:29:27Z</time>
      </trkpt>
      <trkpt lat="49.68527" lon="4.7976">
        <ele>314</ele>
        <time>2016-08-09T17:29:33Z</time>
      </trkpt>
      <trkpt lat="49.6852" lon="4.79787">
        <ele>314</ele>
        <time>2016-08-09T17:29:41Z</time>
      </trkpt>
      <trkpt lat="49.68516" lon="4.7981">
        <ele>311</ele>
        <time>2016-08-09T17:29:47Z</time>
      </trkpt>
      <trkpt lat="49.68511" lon="4.7983">
        <ele>309</ele>
        <time>2016-08-09T17:29:53Z</time>
      </trkpt>
      <trkpt lat="49.68507" lon="4.79851">
        <ele>308</ele>
        <time>2016-08-09T17:29:59Z</time>
      </trkpt>
      <trkpt lat="49.68501" lon="4.7988">
        <ele>307</ele>
        <time>2016-08-09T17:30:07Z</time>
      </trkpt>
      <trkpt lat="49.68494" lon="4.79915">
        <ele>308</ele>
        <time>2016-08-09T17:30:16Z</time>
      </trkpt>
      <trkpt lat="49.68488" lon="4.79939">
        <ele>303</ele>
        <time>2016-08-09T17:30:22Z</time>
      </trkpt>
      <trkpt lat="49.68481" lon="4.79969">
        <ele>301</ele>
        <time>2016-08-09T17:30:30Z</time>
      </trkpt>
      <trkpt lat="49.68479" lon="4.79997">
        <ele>290</ele>
        <time>2016-08-09T17:30:38Z</time>
      </trkpt>
      <trkpt lat="49.68472" lon="4.80038">
        <ele>294</ele>
        <time>2016-08-09T17:30:47Z</time>
      </trkpt>
      <trkpt lat="49.6847" lon="4.8006">
        <ele>297</ele>
        <time>2016-08-09T17:30:52Z</time>
      </trkpt>
      <trkpt lat="49.68472" lon="4.80093">
        <ele>288</ele>
        <time>2016-08-09T17:31:00Z</time>
      </trkpt>
      <trkpt lat="49.68471" lon="4.80127">
        <ele>284</ele>
        <time>2016-08-09T17:31:11Z</time>
      </trkpt>
      <trkpt lat="49.68469" lon="4.80181">
        <ele>279</ele>
        <time>2016-08-09T17:31:23Z</time>
      </trkpt>
      <trkpt lat="49.68471" lon="4.80205">
        <ele>286</ele>
        <time>2016-08-09T17:31:30Z</time>
      </trkpt>
      <trkpt lat="49.68475" lon="4.80241">
        <ele>284</ele>
        <time>2016-08-09T17:31:39Z</time>
      </trkpt>
      <trkpt lat="49.68488" lon="4.80269">
        <ele>285</ele>
        <time>2016-08-09T17:31:46Z</time>
      </trkpt>
      <trkpt lat="49.68504" lon="4.80306">
        <ele>276</ele>
        <time>2016-08-09T17:31:56Z</time>
      </trkpt>
      <trkpt lat="49.68515" lon="4.80329">
        <ele>273</ele>
        <time>2016-08-09T17:32:04Z</time>
      </trkpt>
      <trkpt lat="49.68533" lon="4.80333">
        <ele>269</ele>
        <time>2016-08-09T17:32:11Z</time>
      </trkpt>
      <trkpt lat="49.68566" lon="4.80333">
        <ele>260</ele>
        <time>2016-08-09T17:32:22Z</time>
      </trkpt>
      <trkpt lat="49.68574" lon="4.80333">
        <ele>259</ele>
        <time>2016-08-09T17:32:25Z</time>
      </trkpt>
      <trkpt lat="49.68597" lon="4.80334">
        <ele>255</ele>
        <time>2016-08-09T17:32:33Z</time>
      </trkpt>
      <trkpt lat="49.6862" lon="4.80337">
        <ele>252</ele>
        <time>2016-08-09T17:32:41Z</time>
      </trkpt>
      <trkpt lat="49.68639" lon="4.80338">
        <ele>250</ele>
        <time>2016-08-09T17:32:48Z</time>
      </trkpt>
      <trkpt lat="49.68662" lon="4.80348">
        <ele>249</ele>
        <time>2016-08-09T17:32:57Z</time>
      </trkpt>
      <trkpt lat="49.6868" lon="4.80359">
        <ele>255</ele>
        <time>2016-08-09T17:33:04Z</time>
      </trkpt>
      <trkpt lat="49.68704" lon="4.80372">
        <ele>254</ele>
        <time>2016-08-09T17:33:12Z</time>
      </trkpt>
      <trkpt lat="49.68711" lon="4.80375">
        <ele>253</ele>
        <time>2016-08-09T17:33:15Z</time>
      </trkpt>
      <trkpt lat="49.68732" lon="4.80384">
        <ele>251</ele>
        <time>2016-08-09T17:33:24Z</time>
      </trkpt>
      <trkpt lat="49.68757" lon="4.80392">
        <ele>240</ele>
        <time>2016-08-09T17:33:33Z</time>
      </trkpt>
      <trkpt lat="49.68776" lon="4.80393">
        <ele>237</ele>
        <time>2016-08-09T17:33:40Z</time>
      </trkpt>
      <trkpt lat="49.68797" lon="4.80394">
        <ele>233</ele>
        <time>2016-08-09T17:33:48Z</time>
      </trkpt>
      <trkpt lat="49.68821" lon="4.80399">
        <ele>231</ele>
        <time>2016-08-09T17:33:57Z</time>
      </trkpt>
      <trkpt lat="49.6884" lon="4.80408">
        <ele>239</ele>
        <time>2016-08-09T17:34:04Z</time>
      </trkpt>
      <trkpt lat="49.68865" lon="4.80426">
        <ele>234</ele>
        <time>2016-08-09T17:34:13Z</time>
      </trkpt>
      <trkpt lat="49.68876" lon="4.80446">
        <ele>230</ele>
        <time>2016-08-09T17:34:19Z</time>
      </trkpt>
      <trkpt lat="49.6888" lon="4.80465">
        <ele>227</ele>
        <time>2016-08-09T17:34:24Z</time>
      </trkpt>
      <trkpt lat="49.68895" lon="4.80447">
        <ele>223</ele>
        <time>2016-08-09T17:34:34Z</time>
      </trkpt>
      <trkpt lat="49.68901" lon="4.80418">
        <ele>215</ele>
        <time>2016-08-09T17:34:41Z</time>
      </trkpt>
      <trkpt lat="49.68906" lon="4.80393">
        <ele>212</ele>
        <time>2016-08-09T17:34:49Z</time>
      </trkpt>
      <trkpt lat="49.68911" lon="4.8035">
        <ele>209</ele>
        <time>2016-08-09T17:34:58Z</time>
      </trkpt>
      <trkpt lat="49.68915" lon="4.80333">
        <ele>204</ele>
        <time>2016-08-09T17:35:04Z</time>
      </trkpt>
      <trkpt lat="49.6892" lon="4.80307">
        <ele>206</ele>
        <time>2016-08-09T17:35:14Z</time>
      </trkpt>
      <trkpt lat="49.68914" lon="4.80268">
        <ele>210</ele>
        <time>2016-08-09T17:35:22Z</time>
      </trkpt>
      <trkpt lat="49.68909" lon="4.80244">
        <ele>209</ele>
        <time>2016-08-09T17:35:29Z</time>
      </trkpt>
      <trkpt lat="49.68905" lon="4.80217">
        <ele>210</ele>
        <time>2016-08-09T17:35:37Z</time>
      </trkpt>
      <trkpt lat="49.68906" lon="4.80186">
        <ele>210</ele>
        <time>2016-08-09T17:35:45Z</time>
      </trkpt>
      <trkpt lat="49.6891" lon="4.80156">
        <ele>211</ele>
        <time>2016-08-09T17:35:53Z</time>
      </trkpt>
      <trkpt lat="49.68913" lon="4.80138">
        <ele>210</ele>
        <time>2016-08-09T17:35:58Z</time>
      </trkpt>
      <trkpt lat="49.68915" lon="4.80103">
        <ele>209</ele>
        <time>2016-08-09T17:36:08Z</time>
      </trkpt>
      <trkpt lat="49.68916" lon="4.80069">
        <ele>211</ele>
        <time>2016-08-09T17:36:18Z</time>
      </trkpt>
      <trkpt lat="49.68914" lon="4.80048">
        <ele>212</ele>
        <time>2016-08-09T17:36:24Z</time>
      </trkpt>
      <trkpt lat="49.68914" lon="4.8003">
        <ele>214</ele>
        <time>2016-08-09T17:36:29Z</time>
      </trkpt>
      <trkpt lat="49.68913" lon="4.80018">
        <ele>215</ele>
        <time>2016-08-09T17:36:32Z</time>
      </trkpt>
      <trkpt lat="49.68913" lon="4.80006">
        <ele>215</ele>
        <time>2016-08-09T17:36:35Z</time>
      </trkpt>
      <trkpt lat="49.68919" lon="4.79976">
        <ele>218</ele>
        <time>2016-08-09T17:36:44Z</time>
      </trkpt>
      <trkpt lat="49.68924" lon="4.79944">
        <ele>221</ele>
        <time>2016-08-09T17:36:54Z</time>
      </trkpt>
      <trkpt lat="49.68927" lon="4.79923">
        <ele>222</ele>
        <time>2016-08-09T17:37:00Z</time>
      </trkpt>
      <trkpt lat="49.68929" lon="4.79908">
        <ele>223</ele>
        <time>2016-08-09T17:37:06Z</time>
      </trkpt>
      <trkpt lat="49.68928" lon="4.79877">
        <ele>223</ele>
        <time>2016-08-09T17:37:21Z</time>
      </trkpt>
      <trkpt lat="49.68924" lon="4.7986">
        <ele>225</ele>
        <time>2016-08-09T17:37:29Z</time>
      </trkpt>
      <trkpt lat="49.68914" lon="4.79836">
        <ele>227</ele>
        <time>2016-08-09T17:37:43Z</time>
      </trkpt>
      <trkpt lat="49.68906" lon="4.79823">
        <ele>229</ele>
        <time>2016-08-09T17:37:51Z</time>
      </trkpt>
      <trkpt lat="49.68898" lon="4.7981">
        <ele>230</ele>
        <time>2016-08-09T17:37:59Z</time>
      </trkpt>
      <trkpt lat="49.68888" lon="4.79786">
        <ele>231</ele>
        <time>2016-08-09T17:38:13Z</time>
      </trkpt>
      <trkpt lat="49.68883" lon="4.79745">
        <ele>231</ele>
        <time>2016-08-09T17:38:28Z</time>
      </trkpt>
      <trkpt lat="49.68886" lon="4.7971">
        <ele>231</ele>
        <time>2016-08-09T17:38:38Z</time>
      </trkpt>
      <trkpt lat="49.6889" lon="4.79699">
        <ele>232</ele>
        <time>2016-08-09T17:38:41Z</time>
      </trkpt>
      <trkpt lat="49.68898" lon="4.79673">
        <ele>232</ele>
        <time>2016-08-09T17:38:49Z</time>
      </trkpt>
      <trkpt lat="49.68909" lon="4.79637">
        <ele>232</ele>
        <time>2016-08-09T17:39:00Z</time>
      </trkpt>
      <trkpt lat="49.68922" lon="4.79605">
        <ele>232</ele>
        <time>2016-08-09T17:39:10Z</time>
      </trkpt>
      <trkpt lat="49.68927" lon="4.79592">
        <ele>232</ele>
        <time>2016-08-09T17:39:14Z</time>
      </trkpt>
      <trkpt lat="49.68939" lon="4.79565">
        <ele>232</ele>
        <time>2016-08-09T17:39:22Z</time>
      </trkpt>
      <trkpt lat="49.68943" lon="4.79555">
        <ele>233</ele>
        <time>2016-08-09T17:39:25Z</time>
      </trkpt>
      <trkpt lat="49.68952" lon="4.79528">
        <ele>231</ele>
        <time>2016-08-09T17:39:33Z</time>
      </trkpt>
      <trkpt lat="49.68956" lon="4.79517">
        <ele>233</ele>
        <time>2016-08-09T17:39:36Z</time>
      </trkpt>
      <trkpt lat="49.68967" lon="4.79486">
        <ele>233</ele>
        <time>2016-08-09T17:39:44Z</time>
      </trkpt>
      <trkpt lat="49.68971" lon="4.79474">
        <ele>232</ele>
        <time>2016-08-09T17:39:47Z</time>
      </trkpt>
      <trkpt lat="49.68981" lon="4.79448">
        <ele>233</ele>
        <time>2016-08-09T17:39:55Z</time>
      </trkpt>
      <trkpt lat="49.68988" lon="4.79433">
        <ele>233</ele>
        <time>2016-08-09T17:40:00Z</time>
      </trkpt>
      <trkpt lat="49.68999" lon="4.794">
        <ele>233</ele>
        <time>2016-08-09T17:40:09Z</time>
      </trkpt>
      <trkpt lat="49.69003" lon="4.7939">
        <ele>234</ele>
        <time>2016-08-09T17:40:12Z</time>
      </trkpt>
      <trkpt lat="49.69014" lon="4.79362">
        <ele>234</ele>
        <time>2016-08-09T17:40:20Z</time>
      </trkpt>
      <trkpt lat="49.69019" lon="4.79346">
        <ele>231</ele>
        <time>2016-08-09T17:40:25Z</time>
      </trkpt>
      <trkpt lat="49.6903" lon="4.79315">
        <ele>234</ele>
        <time>2016-08-09T17:40:34Z</time>
      </trkpt>
      <trkpt lat="49.69042" lon="4.79282">
        <ele>234</ele>
        <time>2016-08-09T17:40:44Z</time>
      </trkpt>
      <trkpt lat="49.6905" lon="4.79254">
        <ele>232</ele>
        <time>2016-08-09T17:40:52Z</time>
      </trkpt>
      <trkpt lat="49.69053" lon="4.79237">
        <ele>231</ele>
        <time>2016-08-09T17:40:57Z</time>
      </trkpt>
      <trkpt lat="49.69064" lon="4.79202">
        <ele>230</ele>
        <time>2016-08-09T17:41:07Z</time>
      </trkpt>
      <trkpt lat="49.69069" lon="4.79179">
        <ele>230</ele>
        <time>2016-08-09T17:41:14Z</time>
      </trkpt>
      <trkpt lat="49.69076" lon="4.7916">
        <ele>233</ele>
        <time>2016-08-09T17:41:20Z</time>
      </trkpt>
      <trkpt lat="49.69077" lon="4.7913">
        <ele>232</ele>
        <time>2016-08-09T17:41:29Z</time>
      </trkpt>
      <trkpt lat="49.6908" lon="4.79107">
        <ele>233</ele>
        <time>2016-08-09T17:41:36Z</time>
      </trkpt>
      <trkpt lat="49.69089" lon="4.7907">
        <ele>237</ele>
        <time>2016-08-09T17:41:45Z</time>
      </trkpt>
      <trkpt lat="49.69093" lon="4.79042">
        <ele>238</ele>
        <time>2016-08-09T17:41:53Z</time>
      </trkpt>
      <trkpt lat="49.69096" lon="4.79022">
        <ele>236</ele>
        <time>2016-08-09T17:42:00Z</time>
      </trkpt>
      <trkpt lat="49.69101" lon="4.78994">
        <ele>236</ele>
        <time>2016-08-09T17:42:08Z</time>
      </trkpt>
      <trkpt lat="49.69108" lon="4.78965">
        <ele>236</ele>
        <time>2016-08-09T17:42:16Z</time>
      </trkpt>
      <trkpt lat="49.69115" lon="4.7894">
        <ele>236</ele>
        <time>2016-08-09T17:42:23Z</time>
      </trkpt>
      <trkpt lat="49.69121" lon="4.78911">
        <ele>237</ele>
        <time>2016-08-09T17:42:31Z</time>
      </trkpt>
      <trkpt lat="49.69124" lon="4.78876">
        <ele>237</ele>
        <time>2016-08-09T17:42:42Z</time>
      </trkpt>
      <trkpt lat="49.69123" lon="4.78843">
        <ele>236</ele>
        <time>2016-08-09T17:42:52Z</time>
      </trkpt>
      <trkpt lat="49.69122" lon="4.78828">
        <ele>239</ele>
        <time>2016-08-09T17:42:57Z</time>
      </trkpt>
      <trkpt lat="49.69121" lon="4.78806">
        <ele>238</ele>
        <time>2016-08-09T17:43:05Z</time>
      </trkpt>
      <trkpt lat="49.69121" lon="4.78786">
        <ele>240</ele>
        <time>2016-08-09T17:43:12Z</time>
      </trkpt>
      <trkpt lat="49.69122" lon="4.78761">
        <ele>235</ele>
        <time>2016-08-09T17:43:21Z</time>
      </trkpt>
      <trkpt lat="49.69129" lon="4.78728">
        <ele>242</ele>
        <time>2016-08-09T17:43:34Z</time>
      </trkpt>
      <trkpt lat="49.69132" lon="4.7869">
        <ele>248</ele>
        <time>2016-08-09T17:43:47Z</time>
      </trkpt>
      <trkpt lat="49.69139" lon="4.78662">
        <ele>250</ele>
        <time>2016-08-09T17:43:56Z</time>
      </trkpt>
      <trkpt lat="49.69139" lon="4.78628">
        <ele>244</ele>
        <time>2016-08-09T17:44:08Z</time>
      </trkpt>
      <trkpt lat="49.69151" lon="4.78598">
        <ele>249</ele>
        <time>2016-08-09T17:44:22Z</time>
      </trkpt>
      <trkpt lat="49.69161" lon="4.78575">
        <ele>249</ele>
        <time>2016-08-09T17:44:35Z</time>
      </trkpt>
      <trkpt lat="49.69165" lon="4.78541">
        <ele>250</ele>
        <time>2016-08-09T17:44:51Z</time>
      </trkpt>
      <trkpt lat="49.69167" lon="4.78509">
        <ele>255</ele>
        <time>2016-08-09T17:45:05Z</time>
      </trkpt>
      <trkpt lat="49.69167" lon="4.78478">
        <ele>252</ele>
        <time>2016-08-09T17:45:21Z</time>
      </trkpt>
      <trkpt lat="49.69166" lon="4.78437">
        <ele>248</ele>
        <time>2016-08-09T17:45:33Z</time>
      </trkpt>
      <trkpt lat="49.69165" lon="4.78411">
        <ele>247</ele>
        <time>2016-08-09T17:45:40Z</time>
      </trkpt>
      <trkpt lat="49.69163" lon="4.7838">
        <ele>246</ele>
        <time>2016-08-09T17:45:48Z</time>
      </trkpt>
      <trkpt lat="49.6916" lon="4.78346">
        <ele>242</ele>
        <time>2016-08-09T17:45:56Z</time>
      </trkpt>
      <trkpt lat="49.69159" lon="4.78334">
        <ele>243</ele>
        <time>2016-08-09T17:45:59Z</time>
      </trkpt>
      <trkpt lat="49.69157" lon="4.78322">
        <ele>241</ele>
        <time>2016-08-09T17:46:02Z</time>
      </trkpt>
      <trkpt lat="49.69158" lon="4.78292">
        <ele>242</ele>
        <time>2016-08-09T17:46:09Z</time>
      </trkpt>
      <trkpt lat="49.69158" lon="4.78279">
        <ele>241</ele>
        <time>2016-08-09T17:46:12Z</time>
      </trkpt>
      <trkpt lat="49.69159" lon="4.78265">
        <ele>242</ele>
        <time>2016-08-09T17:46:15Z</time>
      </trkpt>
      <trkpt lat="49.6916" lon="4.78251">
        <ele>240</ele>
        <time>2016-08-09T17:46:18Z</time>
      </trkpt>
      <trkpt lat="49.69161" lon="4.78239">
        <ele>240</ele>
        <time>2016-08-09T17:46:21Z</time>
      </trkpt>
      <trkpt lat="49.69163" lon="4.78226">
        <ele>239</ele>
        <time>2016-08-09T17:46:24Z</time>
      </trkpt>
      <trkpt lat="49.69165" lon="4.78192">
        <ele>240</ele>
        <time>2016-08-09T17:46:32Z</time>
      </trkpt>
      <trkpt lat="49.69166" lon="4.78179">
        <ele>239</ele>
        <time>2016-08-09T17:46:35Z</time>
      </trkpt>
      <trkpt lat="49.69168" lon="4.78151">
        <ele>237</ele>
        <time>2016-08-09T17:46:42Z</time>
      </trkpt>
      <trkpt lat="49.69169" lon="4.78118">
        <ele>237</ele>
        <time>2016-08-09T17:46:50Z</time>
      </trkpt>
      <trkpt lat="49.69169" lon="4.78101">
        <ele>236</ele>
        <time>2016-08-09T17:46:54Z</time>
      </trkpt>
      <trkpt lat="49.69183" lon="4.7809">
        <ele>237</ele>
        <time>2016-08-09T17:47:00Z</time>
      </trkpt>
      <trkpt lat="49.692" lon="4.78078">
        <ele>240</ele>
        <time>2016-08-09T17:47:07Z</time>
      </trkpt>
      <trkpt lat="49.69221" lon="4.78066">
        <ele>237</ele>
        <time>2016-08-09T17:47:16Z</time>
      </trkpt>
      <trkpt lat="49.69235" lon="4.7806">
        <ele>237</ele>
        <time>2016-08-09T17:47:22Z</time>
      </trkpt>
      <trkpt lat="49.69255" lon="4.78048">
        <ele>236</ele>
        <time>2016-08-09T17:47:30Z</time>
      </trkpt>
      <trkpt lat="49.69272" lon="4.78036">
        <ele>236</ele>
        <time>2016-08-09T17:47:37Z</time>
      </trkpt>
      <trkpt lat="49.69284" lon="4.78029">
        <ele>235</ele>
        <time>2016-08-09T17:47:42Z</time>
      </trkpt>
      <trkpt lat="49.69294" lon="4.78024">
        <ele>230</ele>
        <time>2016-08-09T17:47:46Z</time>
      </trkpt>
      <trkpt lat="49.69313" lon="4.78016">
        <ele>226</ele>
        <time>2016-08-09T17:47:54Z</time>
      </trkpt>
      <trkpt lat="49.69332" lon="4.78011">
        <ele>227</ele>
        <time>2016-08-09T17:48:02Z</time>
      </trkpt>
      <trkpt lat="49.69351" lon="4.78011">
        <ele>238</ele>
        <time>2016-08-09T17:48:09Z</time>
      </trkpt>
      <trkpt lat="49.69369" lon="4.78008">
        <ele>228</ele>
        <time>2016-08-09T17:48:16Z</time>
      </trkpt>
      <trkpt lat="49.69391" lon="4.78005">
        <ele>224</ele>
        <time>2016-08-09T17:48:24Z</time>
      </trkpt>
      <trkpt lat="49.69411" lon="4.78005">
        <ele>228</ele>
        <time>2016-08-09T17:48:32Z</time>
      </trkpt>
      <trkpt lat="49.69429" lon="4.78003">
        <ele>220</ele>
        <time>2016-08-09T17:48:39Z</time>
      </trkpt>
      <trkpt lat="49.69437" lon="4.78003">
        <ele>220</ele>
        <time>2016-08-09T17:48:42Z</time>
      </trkpt>
      <trkpt lat="49.69445" lon="4.78002">
        <ele>219</ele>
        <time>2016-08-09T17:48:45Z</time>
      </trkpt>
      <trkpt lat="49.69453" lon="4.78002">
        <ele>217</ele>
        <time>2016-08-09T17:48:48Z</time>
      </trkpt>
      <trkpt lat="49.69461" lon="4.78002">
        <ele>217</ele>
        <time>2016-08-09T17:48:51Z</time>
      </trkpt>
      <trkpt lat="49.69483" lon="4.78">
        <ele>214</ele>
        <time>2016-08-09T17:49:00Z</time>
      </trkpt>
      <trkpt lat="49.69491" lon="4.78">
        <ele>214</ele>
        <time>2016-08-09T17:49:03Z</time>
      </trkpt>
      <trkpt lat="49.69512" lon="4.77998">
        <ele>215</ele>
        <time>2016-08-09T17:49:11Z</time>
      </trkpt>
      <trkpt lat="49.69528" lon="4.77981">
        <ele>216</ele>
        <time>2016-08-09T17:49:19Z</time>
      </trkpt>
      <trkpt lat="49.69546" lon="4.77953">
        <ele>215</ele>
        <time>2016-08-09T17:49:29Z</time>
      </trkpt>
      <trkpt lat="49.69563" lon="4.77929">
        <ele>214</ele>
        <time>2016-08-09T17:49:38Z</time>
      </trkpt>
      <trkpt lat="49.69576" lon="4.77915">
        <ele>212</ele>
        <time>2016-08-09T17:49:45Z</time>
      </trkpt>
      <trkpt lat="49.69596" lon="4.77892">
        <ele>215</ele>
        <time>2016-08-09T17:49:54Z</time>
      </trkpt>
      <trkpt lat="49.69611" lon="4.77874">
        <ele>212</ele>
        <time>2016-08-09T17:50:01Z</time>
      </trkpt>
      <trkpt lat="49.69623" lon="4.77865">
        <ele>218</ele>
        <time>2016-08-09T17:50:06Z</time>
      </trkpt>
      <trkpt lat="49.69638" lon="4.7785">
        <ele>208</ele>
        <time>2016-08-09T17:50:12Z</time>
      </trkpt>
      <trkpt lat="49.69658" lon="4.77832">
        <ele>206</ele>
        <time>2016-08-09T17:50:21Z</time>
      </trkpt>
      <trkpt lat="49.69675" lon="4.77822">
        <ele>215</ele>
        <time>2016-08-09T17:50:28Z</time>
      </trkpt>
      <trkpt lat="49.69685" lon="4.77815">
        <ele>206</ele>
        <time>2016-08-09T17:50:32Z</time>
      </trkpt>
      <trkpt lat="49.69691" lon="4.77799">
        <ele>201</ele>
        <time>2016-08-09T17:50:39Z</time>
      </trkpt>
      <trkpt lat="49.69677" lon="4.77767">
        <ele>199</ele>
        <time>2016-08-09T17:50:50Z</time>
      </trkpt>
      <trkpt lat="49.69671" lon="4.7773">
        <ele>198</ele>
        <time>2016-08-09T17:51:00Z</time>
      </trkpt>
      <trkpt lat="49.69682" lon="4.77703">
        <ele>204</ele>
        <time>2016-08-09T17:51:07Z</time>
      </trkpt>
      <trkpt lat="49.69691" lon="4.7768">
        <ele>197</ele>
        <time>2016-08-09T17:51:14Z</time>
      </trkpt>
      <trkpt lat="49.69704" lon="4.77649">
        <ele>198</ele>
        <time>2016-08-09T17:51:23Z</time>
      </trkpt>
      <trkpt lat="49.6971" lon="4.77632">
        <ele>196</ele>
        <time>2016-08-09T17:51:27Z</time>
      </trkpt>
      <trkpt lat="49.69722" lon="4.77603">
        <ele>194</ele>
        <time>2016-08-09T17:51:36Z</time>
      </trkpt>
      <trkpt lat="49.69736" lon="4.77585">
        <ele>196</ele>
        <time>2016-08-09T17:51:44Z</time>
      </trkpt>
      <trkpt lat="49.69754" lon="4.776">
        <ele>217</ele>
        <time>2016-08-09T17:51:52Z</time>
      </trkpt>
      <trkpt lat="49.69772" lon="4.77608">
        <ele>228</ele>
        <time>2016-08-09T17:52:00Z</time>
      </trkpt>
      <trkpt lat="49.69777" lon="4.77571">
        <ele>198</ele>
        <time>2016-08-09T17:52:10Z</time>
      </trkpt>
      <trkpt lat="49.69779" lon="4.77541">
        <ele>191</ele>
        <time>2016-08-09T17:52:16Z</time>
      </trkpt>
      <trkpt lat="49.69792" lon="4.77513">
        <ele>194</ele>
        <time>2016-08-09T17:52:23Z</time>
      </trkpt>
      <trkpt lat="49.69811" lon="4.77508">
        <ele>213</ele>
        <time>2016-08-09T17:52:31Z</time>
      </trkpt>
      <trkpt lat="49.69827" lon="4.77515">
        <ele>198</ele>
        <time>2016-08-09T17:52:40Z</time>
      </trkpt>
      <trkpt lat="49.69827" lon="4.77515">
        <ele>198</ele>
        <time>2016-08-09T17:52:48Z</time>
      </trkpt>
      <trkpt lat="49.69827" lon="4.77515">
        <ele>149.9</ele>
        <time>2016-08-09T17:52:48Z</time>
      </trkpt>
    </trkseg>
  </trk>
</gpx>